US-0029 weather

CLOSED Carrera Airpark
Mead, Colorado, United States

Public forecast

Using degrees Fahrenheit for public forecast. Weather courtesy of forecast.io.

Closest aviation weather report (METAR) to Carrera Airpark

Closest report is Vance Brand Airport, 10.2 nm (18.9 km) WSW. Retrieved 2020/02/22 02:35 UTC (20 minutes ago):

KLMO 220235Z AUTO 00000KT 10SM CLR M01/M07 A3017 RMK AO2 T10071073

Closest aviation forecast (TAF) to Carrera Airpark

Closest forecast is Rocky Mountain Metropolitan Airport, 20.0 nm (37.0 km) SSW. Retrieved 2020-02-22 00:30 UTC (2 hours ago):

TAF KBJC 212328Z 2200/2224 34005KT P6SM FEW150 SCT220 FM220300 27010KT P6SM FEW220 FM222100 02006KT P6SM SCT100 BKN200